createdAt,value
2022-09-28T00:01:21.806Z,69.57
2022-09-28T00:03:51.191Z,69.72
2022-09-28T00:06:21.070Z,69.64
2022-09-28T00:08:50.291Z,69.99
2022-09-28T00:11:20.937Z,70.29
2022-09-28T00:13:53.255Z,70.50
2022-09-28T00:16:23.432Z,70.34
2022-09-28T00:18:51.520Z,70.55
2022-09-28T00:21:24.787Z,70.89
2022-09-28T00:24:25.199Z,70.46
2022-09-28T00:26:56.857Z,70.64
2022-09-28T00:29:32.776Z,70.79
2022-09-28T00:32:03.181Z,71.20
2022-09-28T00:34:36.318Z,71.38
2022-09-28T00:37:05.361Z,71.46
2022-09-28T00:39:32.410Z,71.06
2022-09-28T00:41:59.907Z,71.29
2022-09-28T00:44:27.057Z,71.69
2022-09-28T00:47:02.265Z,71.67
2022-09-28T00:49:39.057Z,71.85
2022-09-28T00:52:07.716Z,72.00
2022-09-28T00:54:36.085Z,71.92
2022-09-28T00:57:04.412Z,71.98
2022-09-28T00:59:33.849Z,72.05
2022-09-28T01:02:02.140Z,72.10
2022-09-28T01:04:30.688Z,71.96
2022-09-28T01:06:59.277Z,72.36
2022-09-28T01:09:27.969Z,71.76
2022-09-28T01:11:55.363Z,72.17
2022-09-28T01:14:25.806Z,72.14
2022-09-28T01:17:12.755Z,72.73
2022-09-28T01:19:49.129Z,72.85
2022-09-28T01:22:34.378Z,72.78
2022-09-28T01:25:20.223Z,73.07
2022-09-28T01:28:11.486Z,72.86
2022-09-28T01:30:47.291Z,72.67
2022-09-28T01:33:25.062Z,73.02
2022-09-28T01:36:18.443Z,73.90
2022-09-28T01:39:12.586Z,73.97
2022-09-28T01:41:44.899Z,73.43
2022-09-28T01:44:16.352Z,73.51
2022-09-28T01:46:47.067Z,73.86
2022-09-28T01:49:22.991Z,73.92
2022-09-28T01:52:01.162Z,73.49
2022-09-28T01:55:13.347Z,73.69
2022-09-28T01:57:51.896Z,73.43
2022-09-28T02:00:21.282Z,73.15
2022-09-28T02:02:56.571Z,72.99
2022-09-28T02:05:37.350Z,73.13
2022-09-28T02:08:08.173Z,73.33
2022-09-28T02:11:03.621Z,73.30
2022-09-28T02:13:37.855Z,73.31
2022-09-28T02:16:14.141Z,73.20
2022-09-28T02:18:42.195Z,73.26
2022-09-28T02:21:39.026Z,74.28
2022-09-28T02:24:24.818Z,74.00
2022-09-28T02:26:55.899Z,73.36
2022-09-28T02:29:23.965Z,73.93
2022-09-28T02:31:52.282Z,73.49
2022-09-28T02:34:19.814Z,73.39
2022-09-28T02:36:47.330Z,73.43
2022-09-28T02:39:17.140Z,73.57
2022-09-28T02:42:05.534Z,74.08
2022-09-28T02:45:01.341Z,74.37
2022-09-28T02:47:48.702Z,74.19
2022-09-28T02:50:43.740Z,74.30
2022-09-28T02:53:29.401Z,73.65
2022-09-28T02:56:33.083Z,74.13
2022-09-28T02:59:16.568Z,73.73
2022-09-28T03:02:24.998Z,73.85
2022-09-28T03:05:19.838Z,73.93
2022-09-28T03:07:52.471Z,73.56
2022-09-28T03:10:32.293Z,73.63
2022-09-28T03:13:00.853Z,73.78
2022-09-28T03:15:30.780Z,73.59
2022-09-28T03:17:58.758Z,73.92
2022-09-28T03:20:27.489Z,74.13
2022-09-28T03:23:22.784Z,73.72
2022-09-28T03:25:42.035Z,74.20
2022-09-28T03:28:08.997Z,73.66
2022-09-28T03:30:39.520Z,73.44
2022-09-28T03:33:07.194Z,73.64
2022-09-28T03:35:34.362Z,73.64
2022-09-28T03:38:01.402Z,74.00
2022-09-28T03:40:30.825Z,73.63
2022-09-28T03:42:57.965Z,73.72
2022-09-28T03:45:25.546Z,73.84
2022-09-28T03:47:52.977Z,73.93
2022-09-28T03:50:19.932Z,74.00
2022-09-28T03:52:48.601Z,74.01
2022-09-28T03:55:15.947Z,74.01
2022-09-28T03:57:43.188Z,73.91
2022-09-28T04:00:11.468Z,73.75
2022-09-28T04:02:41.240Z,73.96
2022-09-28T04:05:09.440Z,73.81
2022-09-28T04:07:37.868Z,73.89
2022-09-28T04:10:05.174Z,74.18
2022-09-28T04:12:32.564Z,73.89
2022-09-28T04:14:59.777Z,74.13
2022-09-28T04:17:26.899Z,73.78
2022-09-28T04:19:54.843Z,73.68
2022-09-28T04:22:37.833Z,74.22
2022-09-28T04:25:05.307Z,73.61
2022-09-28T04:27:51.520Z,73.88
2022-09-28T04:30:19.404Z,74.04
2022-09-28T04:32:47.479Z,74.02
2022-09-28T04:35:15.150Z,74.24
2022-09-28T04:37:42.307Z,73.98
2022-09-28T04:40:09.697Z,73.96
2022-09-28T04:42:37.609Z,74.14
2022-09-28T04:45:05.002Z,73.71
2022-09-28T04:47:35.222Z,74.01
2022-09-28T04:50:30.289Z,73.89
2022-09-28T04:53:11.470Z,73.51
2022-09-28T04:55:39.766Z,73.77
2022-09-28T04:58:06.690Z,73.62
2022-09-28T05:00:35.684Z,73.94
2022-09-28T05:03:22.664Z,73.81
2022-09-28T05:06:16.733Z,73.68
2022-09-28T05:08:47.059Z,73.32
2022-09-28T05:11:15.059Z,73.54
2022-09-28T05:13:46.028Z,73.66
2022-09-28T05:16:16.460Z,73.24
2022-09-28T05:19:03.731Z,73.85
2022-09-28T05:21:31.091Z,73.89
2022-09-28T05:23:58.662Z,73.63
2022-09-28T05:26:26.475Z,73.66
2022-09-28T05:28:53.483Z,73.79
2022-09-28T05:31:39.356Z,73.92
2022-09-28T05:34:06.675Z,74.31
2022-09-28T05:36:34.011Z,73.92
2022-09-28T05:39:01.561Z,73.87
2022-09-28T05:41:28.998Z,73.97
2022-09-28T05:43:56.233Z,74.06
2022-09-28T05:46:23.943Z,74.14
2022-09-28T05:48:52.750Z,74.02
2022-09-28T05:51:20.126Z,74.14
2022-09-28T05:53:47.503Z,74.22
2022-09-28T05:56:16.039Z,74.55
2022-09-28T05:58:44.713Z,73.72
2022-09-28T06:01:13.631Z,74.04
2022-09-28T06:03:40.637Z,74.15
2022-09-28T06:06:07.602Z,73.76
2022-09-28T06:08:34.562Z,73.69
2022-09-28T06:11:21.824Z,74.04
2022-09-28T06:13:53.630Z,74.44
2022-09-28T06:16:20.888Z,74.43
2022-09-28T06:18:48.553Z,74.29
2022-09-28T06:21:44.808Z,74.40
2022-09-28T06:24:11.954Z,74.26
2022-09-28T06:26:38.942Z,74.54
2022-09-28T06:29:07.756Z,74.27
2022-09-28T06:31:34.968Z,74.08
2022-09-28T06:34:02.298Z,73.78
2022-09-28T06:36:31.383Z,73.72
2022-09-28T06:38:58.812Z,73.68
2022-09-28T06:41:26.010Z,73.80
2022-09-28T06:43:53.248Z,73.78
2022-09-28T06:46:39.328Z,74.27
2022-09-28T06:49:27.952Z,73.96
2022-09-28T06:52:15.267Z,74.14
2022-09-28T06:55:00.875Z,73.94
2022-09-28T06:57:42.886Z,73.99
2022-09-28T07:00:10.703Z,73.78
2022-09-28T07:02:38.150Z,73.67
2022-09-28T07:05:15.915Z,73.84
2022-09-28T07:08:14.992Z,73.65
2022-09-28T07:11:07.133Z,73.57
2022-09-28T07:14:01.353Z,73.52
2022-09-28T07:16:51.811Z,73.24
2022-09-28T07:19:17.259Z,73.44
2022-09-28T07:21:47.327Z,73.41
2022-09-28T07:24:17.803Z,73.84
2022-09-28T07:27:05.728Z,73.79
2022-09-28T07:29:43.320Z,74.18
2022-09-28T07:32:34.710Z,73.89
2022-09-28T07:35:20.953Z,74.05
2022-09-28T07:38:02.605Z,73.70
2022-09-28T07:40:50.778Z,73.63
2022-09-28T07:43:22.037Z,73.42
2022-09-28T07:45:54.292Z,73.25
2022-09-28T07:48:22.578Z,73.30
2022-09-28T07:50:53.608Z,73.42
2022-09-28T07:53:46.048Z,73.79
2022-09-28T07:56:36.295Z,74.22
2022-09-28T07:59:18.537Z,73.84
2022-09-28T08:02:24.532Z,73.97
2022-09-28T08:04:52.222Z,73.90
2022-09-28T08:07:23.512Z,74.23
2022-09-28T08:09:57.223Z,74.36
2022-09-28T08:12:26.974Z,74.11
2022-09-28T08:15:17.193Z,73.92
2022-09-28T08:18:05.471Z,73.52
2022-09-28T08:20:51.986Z,73.80
2022-09-28T08:23:20.969Z,73.67
2022-09-28T08:25:49.308Z,73.93
2022-09-28T08:28:17.852Z,73.70
2022-09-28T08:30:48.868Z,73.45
2022-09-28T08:33:35.130Z,73.45
2022-09-28T08:36:34.608Z,73.75
2022-09-28T08:39:01.583Z,73.88
2022-09-28T08:42:08.980Z,73.36
2022-09-28T08:44:49.459Z,73.49
2022-09-28T08:47:57.794Z,73.26
2022-09-28T08:50:34.116Z,73.42
2022-09-28T08:53:38.747Z,72.75
2022-09-28T08:56:28.060Z,72.99
2022-09-28T08:59:00.197Z,72.96
2022-09-28T09:01:35.146Z,73.07
2022-09-28T09:04:07.376Z,73.25
2022-09-28T09:07:29.107Z,73.29
2022-09-28T09:10:30.247Z,73.61
2022-09-28T09:13:16.927Z,73.34
2022-09-28T09:16:18.955Z,73.01
2022-09-28T09:19:22.887Z,73.04
2022-09-28T09:22:43.047Z,72.75
2022-09-28T09:25:47.367Z,72.87
2022-09-28T09:28:52.412Z,72.64
2022-09-28T09:31:44.988Z,72.33
2022-09-28T09:34:54.241Z,72.28
2022-09-28T09:37:50.038Z,71.89
2022-09-28T09:41:02.005Z,72.00
2022-09-28T09:44:02.842Z,71.96
2022-09-28T09:47:10.465Z,71.76
2022-09-28T09:49:51.726Z,71.85
2022-09-28T09:52:37.773Z,72.20
2022-09-28T09:55:29.859Z,71.51
2022-09-28T09:58:22.005Z,71.76
2022-09-28T10:01:04.764Z,71.63
2022-09-28T10:03:52.911Z,71.00
2022-09-28T10:06:30.382Z,71.06
2022-09-28T10:09:10.588Z,71.42
2022-09-28T10:11:44.569Z,70.98
2022-09-28T10:14:22.330Z,71.08
2022-09-28T10:17:05.517Z,70.80
2022-09-28T10:20:01.709Z,70.46
2022-09-28T10:22:58.244Z,70.56
2022-09-28T10:25:26.512Z,70.57
2022-09-28T10:27:55.976Z,70.59
2022-09-28T10:30:25.448Z,70.65
2022-09-28T10:32:59.484Z,70.64
2022-09-28T10:35:42.388Z,70.56
2022-09-28T10:38:17.678Z,70.53
2022-09-28T10:40:50.865Z,70.72
2022-09-28T10:44:11.007Z,70.88
2022-09-28T10:46:59.355Z,70.78
2022-09-28T10:49:28.701Z,70.99
2022-09-28T10:51:58.347Z,70.61
2022-09-28T10:54:31.544Z,70.99
2022-09-28T10:57:01.421Z,71.45
2022-09-28T10:59:46.905Z,70.85
2022-09-28T11:02:38.780Z,70.77
2022-09-28T11:05:21.775Z,71.18
2022-09-28T11:07:49.922Z,70.75
2022-09-28T11:10:26.245Z,70.98
2022-09-28T11:12:58.117Z,70.99
2022-09-28T11:15:31.686Z,71.03
2022-09-28T11:18:34.496Z,71.37
2022-09-28T11:21:27.343Z,71.45
2022-09-28T11:24:19.237Z,70.96
2022-09-28T11:26:56.658Z,71.00
2022-09-28T11:29:46.167Z,71.21
2022-09-28T11:32:16.499Z,71.23
2022-09-28T11:35:35.669Z,71.37
2022-09-28T11:38:15.831Z,71.34
2022-09-28T11:41:28.708Z,71.18
2022-09-28T11:44:32.569Z,71.35
2022-09-28T11:47:25.674Z,71.09
2022-09-28T11:50:24.094Z,71.09
2022-09-28T11:53:17.977Z,71.19
2022-09-28T11:55:50.691Z,70.95
2022-09-28T11:58:33.726Z,70.98
2022-09-28T12:01:08.639Z,71.05
2022-09-28T12:04:04.156Z,70.99
2022-09-28T12:07:15.906Z,70.89
2022-09-28T12:10:10.567Z,70.87
2022-09-28T12:12:57.485Z,70.62
2022-09-28T12:15:38.223Z,70.60
2022-09-28T12:18:39.345Z,70.61
2022-09-28T12:21:27.086Z,70.73
2022-09-28T12:24:00.895Z,70.72
2022-09-28T12:27:00.839Z,70.39
2022-09-28T12:29:43.214Z,70.51
2022-09-28T12:32:28.507Z,70.54
2022-09-28T12:34:56.620Z,70.39
2022-09-28T12:37:37.563Z,70.73
2022-09-28T12:40:16.717Z,70.81
2022-09-28T12:42:46.695Z,70.65
2022-09-28T12:45:38.779Z,70.85
2022-09-28T12:48:30.201Z,70.30
2022-09-28T12:51:12.272Z,70.15
2022-09-28T12:53:57.853Z,70.07
2022-09-28T12:56:40.846Z,70.24
2022-09-28T12:59:38.167Z,70.01
2022-09-28T13:02:42.766Z,70.12
2022-09-28T13:05:28.546Z,70.25
2022-09-28T13:08:05.152Z,70.07
2022-09-28T13:10:47.451Z,70.09
2022-09-28T13:13:41.144Z,69.95
2022-09-28T13:16:21.625Z,69.69
2022-09-28T13:19:00.155Z,70.00
2022-09-28T13:21:52.460Z,69.78
2022-09-28T13:24:32.868Z,69.93
2022-09-28T13:27:10.470Z,70.13
2022-09-28T13:32:12.881Z,70.09
2022-09-28T13:34:40.265Z,70.03
2022-09-28T13:37:20.492Z,70.61
2022-09-28T13:39:52.874Z,70.20
2022-09-28T13:42:25.856Z,70.29
2022-09-28T13:45:14.395Z,70.30
2022-09-28T13:47:52.628Z,69.85
2022-09-28T13:50:28.885Z,69.43
2022-09-28T13:52:58.690Z,69.70
2022-09-28T13:55:50.907Z,69.44
2022-09-28T13:58:27.758Z,69.69
2022-09-28T14:01:34.139Z,69.43
2022-09-28T14:04:16.341Z,69.40
2022-09-28T14:06:51.425Z,69.20
2022-09-28T14:09:55.852Z,69.41
2022-09-28T14:12:34.606Z,68.99
2022-09-28T14:15:03.356Z,69.00
2022-09-28T14:17:51.186Z,69.05
2022-09-28T14:20:22.567Z,69.20
2022-09-28T14:23:25.368Z,69.40
2022-09-28T14:26:31.999Z,69.32
2022-09-28T14:29:28.933Z,69.39
2022-09-28T14:31:58.421Z,68.97
2022-09-28T14:34:38.275Z,69.00
2022-09-28T14:37:38.953Z,69.24
2022-09-28T14:40:38.233Z,69.05
2022-09-28T14:43:48.355Z,69.06
2022-09-28T14:46:15.466Z,69.33
2022-09-28T14:49:04.085Z,69.29
2022-09-28T14:51:31.179Z,69.72
2022-09-28T14:54:03.209Z,69.62
2022-09-28T14:56:38.327Z,69.50
2022-09-28T14:59:06.990Z,69.14
2022-09-28T15:01:36.433Z,69.20
2022-09-28T15:04:09.025Z,69.33
2022-09-28T15:06:47.311Z,69.43
2022-09-28T15:09:34.707Z,69.73
2022-09-28T15:12:10.006Z,69.70
2022-09-28T15:14:46.320Z,69.84
2022-09-28T15:17:19.173Z,69.85
2022-09-28T15:20:01.628Z,70.02
2022-09-28T15:22:30.485Z,69.57
2022-09-28T15:25:02.476Z,69.25
2022-09-28T15:27:38.128Z,69.06
2022-09-28T15:30:25.916Z,69.55
2022-09-28T15:32:57.037Z,69.08
2022-09-28T15:35:26.707Z,69.09
2022-09-28T15:37:55.412Z,69.06
2022-09-28T15:40:32.899Z,68.84
2022-09-28T15:43:00.410Z,68.37
2022-09-28T15:45:37.431Z,68.57
2022-09-28T15:48:33.320Z,68.65
2022-09-28T15:51:12.401Z,68.41
2022-09-28T15:54:01.127Z,68.76
2022-09-28T15:56:29.057Z,68.40
2022-09-28T15:59:25.410Z,68.48
2022-09-28T16:02:22.999Z,68.69
2022-09-28T16:04:53.193Z,69.05
2022-09-28T16:07:21.251Z,68.73
2022-09-28T16:09:56.897Z,68.55
2022-09-28T16:12:26.412Z,68.52
2022-09-28T16:14:56.179Z,68.34
2022-09-28T16:17:35.842Z,68.45
2022-09-28T16:20:19.066Z,68.39
2022-09-28T16:22:46.450Z,68.29
2022-09-28T16:25:20.102Z,68.77
2022-09-28T16:27:47.149Z,68.50
2022-09-28T16:30:24.323Z,68.41
2022-09-28T16:32:57.257Z,68.53
2022-09-28T16:35:27.043Z,68.38
2022-09-28T16:37:59.916Z,68.43
2022-09-28T16:40:27.847Z,68.48
2022-09-28T16:43:00.171Z,68.74
2022-09-28T16:45:28.861Z,68.64
2022-09-28T16:47:57.764Z,68.84
2022-09-28T16:50:25.489Z,68.81
2022-09-28T16:53:31.862Z,68.91
2022-09-28T16:56:00.187Z,68.49
2022-09-28T16:58:28.962Z,68.64
2022-09-28T17:00:56.619Z,68.23
2022-09-28T17:03:24.669Z,68.18
2022-09-28T17:05:52.824Z,68.47
2022-09-28T17:08:22.398Z,68.13
2022-09-28T17:11:22.724Z,68.45
2022-09-28T17:13:49.268Z,68.39
2022-09-28T17:16:32.502Z,68.07
2022-09-28T17:19:28.768Z,67.75
2022-09-28T17:21:55.838Z,67.05
2022-09-28T17:24:22.782Z,66.85
2022-09-28T17:26:51.242Z,67.31
2022-09-28T17:29:18.771Z,66.95
2022-09-28T17:31:47.327Z,66.76
2022-09-28T17:34:16.509Z,66.87
2022-09-28T17:36:44.914Z,66.67
2022-09-28T17:39:14.991Z,67.00
2022-09-28T17:41:41.986Z,66.64
2022-09-28T17:44:09.322Z,66.88
2022-09-28T17:46:40.996Z,67.17
2022-09-28T17:49:11.730Z,67.21
2022-09-28T17:51:38.920Z,67.26
2022-09-28T17:54:08.437Z,67.24
2022-09-28T17:56:36.975Z,66.99
2022-09-28T17:59:07.563Z,67.18
2022-09-28T18:01:37.925Z,67.50
2022-09-28T18:04:07.742Z,67.49
2022-09-28T18:06:35.200Z,67.54
2022-09-28T18:09:05.552Z,67.14
2022-09-28T18:11:34.293Z,66.89
2022-09-28T18:14:01.422Z,67.03
2022-09-28T18:16:29.124Z,66.88
2022-09-28T18:18:58.486Z,66.98
2022-09-28T18:21:25.708Z,67.31
2022-09-28T18:23:52.928Z,67.29
2022-09-28T18:26:20.096Z,67.29
2022-09-28T18:28:47.526Z,67.26
2022-09-28T18:31:15.814Z,67.14
2022-09-28T18:33:43.431Z,67.48
2022-09-28T18:36:10.710Z,67.24
2022-09-28T18:38:38.703Z,67.28
2022-09-28T18:41:17.207Z,67.30
2022-09-28T18:43:55.652Z,67.61
2022-09-28T18:46:25.707Z,67.75
2022-09-28T18:48:52.996Z,68.48
2022-09-28T18:51:20.757Z,68.13
2022-09-28T18:53:48.249Z,67.77
2022-09-28T18:56:21.248Z,68.13
2022-09-28T18:58:51.492Z,68.27
2022-09-28T19:01:36.265Z,67.88
2022-09-28T19:04:06.887Z,67.67
2022-09-28T19:06:34.939Z,67.67
2022-09-28T19:09:02.524Z,67.65
2022-09-28T19:11:29.697Z,67.40
2022-09-28T19:13:57.080Z,67.25
2022-09-28T19:16:29.189Z,67.75
2022-09-28T19:19:01.092Z,67.43
2022-09-28T19:21:28.167Z,67.81
2022-09-28T19:23:55.765Z,67.88
2022-09-28T19:26:26.985Z,67.84
2022-09-28T19:28:56.665Z,68.23
2022-09-28T19:31:24.544Z,67.92
2022-09-28T19:33:51.686Z,68.08
2022-09-28T19:36:21.975Z,68.44
2022-09-28T19:38:49.605Z,68.15
2022-09-28T19:41:39.553Z,68.60
2022-09-28T19:44:15.691Z,68.44
2022-09-28T19:46:43.097Z,68.33
2022-09-28T19:49:13.779Z,68.30
2022-09-28T19:52:01.605Z,68.44
2022-09-28T19:54:36.292Z,68.35
2022-09-28T19:57:09.027Z,68.41
2022-09-28T19:59:37.405Z,68.25
2022-09-28T20:02:06.206Z,67.96
2022-09-28T20:04:33.263Z,67.96
2022-09-28T20:07:00.332Z,68.07
2022-09-28T20:09:27.306Z,68.04
2022-09-28T20:11:54.439Z,68.11
2022-09-28T20:14:23.435Z,68.21
2022-09-28T20:16:54.152Z,68.40
2022-09-28T20:19:23.159Z,68.68
2022-09-28T20:21:50.872Z,68.80
2022-09-28T20:24:18.374Z,68.42
2022-09-28T20:26:46.218Z,68.15
2022-09-28T20:29:13.489Z,68.48
2022-09-28T20:31:40.695Z,68.93
2022-09-28T20:34:08.144Z,68.88
2022-09-28T20:36:35.347Z,68.74
2022-09-28T20:39:02.961Z,68.60
2022-09-28T20:41:36.912Z,68.37
2022-09-28T20:44:06.514Z,68.66
2022-09-28T20:46:37.165Z,68.74
2022-09-28T20:49:05.094Z,68.74
2022-09-28T20:51:32.434Z,69.17
2022-09-28T20:53:59.947Z,69.23
2022-09-28T20:56:40.168Z,69.01
2022-09-28T20:59:08.727Z,68.83
2022-09-28T21:01:36.106Z,69.20
2022-09-28T21:04:05.118Z,69.14
2022-09-28T21:06:35.918Z,68.70
2022-09-28T21:09:04.122Z,69.00
2022-09-28T21:11:32.193Z,69.22
2022-09-28T21:14:01.846Z,69.30
2022-09-28T21:16:31.571Z,69.06
2022-09-28T21:18:58.863Z,69.21
2022-09-28T21:21:26.692Z,69.19
2022-09-28T21:23:55.064Z,69.15
2022-09-28T21:26:25.207Z,69.07
2022-09-28T21:28:53.989Z,69.05
2022-09-28T21:31:27.743Z,69.34
2022-09-28T21:33:56.446Z,69.57
2022-09-28T21:36:23.394Z,69.20
2022-09-28T21:38:50.544Z,69.31
2022-09-28T21:41:17.601Z,69.42
2022-09-28T21:43:45.941Z,69.30
2022-09-28T21:46:13.205Z,69.35
2022-09-28T21:48:40.518Z,69.16
2022-09-28T21:51:09.993Z,69.55
2022-09-28T21:53:38.404Z,69.62
2022-09-28T21:56:09.689Z,69.41
2022-09-28T21:58:36.986Z,69.29
2022-09-28T22:01:08.219Z,69.69
2022-09-28T22:03:37.223Z,70.07
2022-09-28T22:06:05.501Z,70.05
2022-09-28T22:08:33.459Z,69.99
2022-09-28T22:11:12.793Z,69.99
2022-09-28T22:13:42.915Z,69.56
2022-09-28T22:16:11.045Z,69.38
2022-09-28T22:18:38.293Z,69.35
2022-09-28T22:21:14.407Z,69.38
2022-09-28T22:23:41.757Z,69.44
2022-09-28T22:26:11.802Z,69.72
2022-09-28T22:28:40.149Z,69.44
2022-09-28T22:31:07.198Z,69.20
2022-09-28T22:33:34.265Z,69.27
2022-09-28T22:36:01.424Z,69.25
2022-09-28T22:38:32.086Z,69.42
2022-09-28T22:40:59.337Z,69.79
2022-09-28T22:43:27.010Z,70.15
2022-09-28T22:46:08.557Z,69.73
2022-09-28T22:48:35.917Z,69.34
2022-09-28T22:51:04.762Z,69.02
2022-09-28T22:53:31.909Z,69.06
2022-09-28T22:56:01.554Z,69.27
2022-09-28T22:58:28.533Z,69.29
2022-09-28T23:00:57.230Z,69.05
2022-09-28T23:03:24.303Z,69.17
2022-09-28T23:05:55.598Z,69.79
2022-09-28T23:08:23.911Z,69.64
2022-09-28T23:10:51.673Z,69.64
2022-09-28T23:13:18.883Z,69.70
2022-09-28T23:15:57.078Z,69.99
2022-09-28T23:18:24.837Z,69.79
2022-09-28T23:21:00.113Z,69.45
2022-09-28T23:23:27.349Z,69.82
2022-09-28T23:25:55.591Z,70.03
2022-09-28T23:28:24.495Z,69.82
2022-09-28T23:30:52.425Z,70.03
2022-09-28T23:33:21.102Z,70.15
2022-09-28T23:35:48.345Z,70.37
2022-09-28T23:38:18.367Z,70.36
2022-09-28T23:40:46.967Z,69.87
2022-09-28T23:43:14.949Z,69.72
2022-09-28T23:45:45.700Z,69.83
2022-09-28T23:48:15.095Z,69.68
2022-09-28T23:50:43.434Z,69.62
2022-09-28T23:53:12.393Z,69.74
2022-09-28T23:55:39.439Z,69.68
2022-09-28T23:58:06.407Z,69.66
